sensor_id;sensor_type;location;lat;lon;timestamp;P1;durP1;ratioP1;P2;durP2;ratioP2
54641;SDS011;40536;53.194;5.728;2023-06-01T00:42:38;19.40;;;14.52;;
54641;SDS011;40536;53.194;5.728;2023-06-01T00:45:04;19.75;;;16.05;;
54641;SDS011;40536;53.194;5.728;2023-06-01T00:47:30;16.23;;;14.43;;
54641;SDS011;40536;53.194;5.728;2023-06-01T00:50:03;21.88;;;15.57;;
54641;SDS011;40536;53.194;5.728;2023-06-01T00:52:30;17.15;;;10.73;;
54641;SDS011;40536;53.194;5.728;2023-06-01T00:54:56;17.02;;;11.57;;
54641;SDS011;40536;53.194;5.728;2023-06-01T00:57:22;13.40;;;9.27;;
54641;SDS011;40536;53.194;5.728;2023-06-01T00:59:51;14.57;;;10.88;;
54641;SDS011;40536;53.194;5.728;2023-06-01T01:02:18;18.08;;;10.65;;
54641;SDS011;40536;53.194;5.728;2023-06-01T01:04:43;19.23;;;13.85;;
54641;SDS011;40536;53.194;5.728;2023-06-01T01:07:46;15.02;;;10.90;;
54641;SDS011;40536;53.194;5.728;2023-06-01T01:10:14;34.53;;;31.67;;
54641;SDS011;40536;53.194;5.728;2023-06-01T01:12:51;15.00;;;10.43;;
54641;SDS011;40536;53.194;5.728;2023-06-01T01:15:26;19.27;;;11.55;;
54641;SDS011;40536;53.194;5.728;2023-06-01T01:18:16;20.13;;;10.95;;
54641;SDS011;40536;53.194;5.728;2023-06-01T01:20:51;16.30;;;10.23;;
54641;SDS011;40536;53.194;5.728;2023-06-01T01:28:52;17.00;;;13.13;;
54641;SDS011;40536;53.194;5.728;2023-06-01T01:31:24;41.45;;;38.15;;
54641;SDS011;40536;53.194;5.728;2023-06-01T01:33:53;35.22;;;32.03;;
54641;SDS011;40536;53.194;5.728;2023-06-01T01:36:20;17.92;;;11.98;;
54641;SDS011;40536;53.194;5.728;2023-06-01T01:38:47;25.60;;;19.38;;
54641;SDS011;40536;53.194;5.728;2023-06-01T01:41:13;15.90;;;13.40;;
54641;SDS011;40536;53.194;5.728;2023-06-01T01:43:39;20.45;;;13.43;;
54641;SDS011;40536;53.194;5.728;2023-06-01T01:51:26;16.38;;;12.23;;
54641;SDS011;40536;53.194;5.728;2023-06-01T01:53:56;15.00;;;10.85;;
54641;SDS011;40536;53.194;5.728;2023-06-01T01:56:24;14.25;;;11.10;;
54641;SDS011;40536;53.194;5.728;2023-06-01T01:58:51;16.25;;;10.60;;
54641;SDS011;40536;53.194;5.728;2023-06-01T02:01:18;16.10;;;11.65;;
54641;SDS011;40536;53.194;5.728;2023-06-01T02:03:44;16.40;;;10.35;;
54641;SDS011;40536;53.194;5.728;2023-06-01T02:06:10;37.22;;;33.83;;
54641;SDS011;40536;53.194;5.728;2023-06-01T02:08:35;18.05;;;13.05;;
54641;SDS011;40536;53.194;5.728;2023-06-01T02:11:01;17.13;;;12.57;;
54641;SDS011;40536;53.194;5.728;2023-06-01T02:13:27;16.15;;;11.55;;
54641;SDS011;40536;53.194;5.728;2023-06-01T02:15:52;15.77;;;11.52;;
54641;SDS011;40536;53.194;5.728;2023-06-01T02:18:18;17.30;;;11.13;;
54641;SDS011;40536;53.194;5.728;2023-06-01T02:20:44;17.98;;;11.00;;
54641;SDS011;40536;53.194;5.728;2023-06-01T02:23:10;13.48;;;9.52;;
54641;SDS011;40536;53.194;5.728;2023-06-01T02:25:36;16.83;;;9.43;;
54641;SDS011;40536;53.194;5.728;2023-06-01T02:28:02;19.38;;;17.48;;
54641;SDS011;40536;53.194;5.728;2023-06-01T02:30:28;15.68;;;9.63;;
54641;SDS011;40536;53.194;5.728;2023-06-01T02:32:53;13.30;;;10.05;;
54641;SDS011;40536;53.194;5.728;2023-06-01T02:35:20;18.98;;;10.40;;
54641;SDS011;40536;53.194;5.728;2023-06-01T02:37:45;16.52;;;9.48;;
54641;SDS011;40536;53.194;5.728;2023-06-01T02:40:11;12.65;;;9.10;;
54641;SDS011;40536;53.194;5.728;2023-06-01T02:42:37;14.77;;;9.25;;
54641;SDS011;40536;53.194;5.728;2023-06-01T02:45:04;13.57;;;8.73;;
54641;SDS011;40536;53.194;5.728;2023-06-01T02:47:31;14.73;;;9.52;;
54641;SDS011;40536;53.194;5.728;2023-06-01T02:49:57;9.25;;;7.07;;
54641;SDS011;40536;53.194;5.728;2023-06-01T02:52:22;11.77;;;7.43;;
54641;SDS011;40536;53.194;5.728;2023-06-01T02:54:48;10.55;;;7.35;;
54641;SDS011;40536;53.194;5.728;2023-06-01T02:57:14;11.13;;;7.38;;
54641;SDS011;40536;53.194;5.728;2023-06-01T02:59:39;11.30;;;7.20;;
54641;SDS011;40536;53.194;5.728;2023-06-01T03:02:05;9.93;;;7.80;;
54641;SDS011;40536;53.194;5.728;2023-06-01T03:04:31;12.13;;;8.30;;
54641;SDS011;40536;53.194;5.728;2023-06-01T03:06:58;11.07;;;7.78;;
54641;SDS011;40536;53.194;5.728;2023-06-01T03:09:24;10.63;;;6.85;;
54641;SDS011;40536;53.194;5.728;2023-06-01T03:11:50;12.40;;;8.63;;
54641;SDS011;40536;53.194;5.728;2023-06-01T03:14:15;11.02;;;7.53;;
54641;SDS011;40536;53.194;5.728;2023-06-01T03:16:41;10.75;;;7.18;;
54641;SDS011;40536;53.194;5.728;2023-06-01T03:19:07;14.15;;;7.97;;
54641;SDS011;40536;53.194;5.728;2023-06-01T03:21:33;10.82;;;6.68;;
54641;SDS011;40536;53.194;5.728;2023-06-01T03:23:59;9.13;;;6.72;;
54641;SDS011;40536;53.194;5.728;2023-06-01T03:26:27;13.40;;;6.40;;
54641;SDS011;40536;53.194;5.728;2023-06-01T03:28:53;11.93;;;6.65;;
54641;SDS011;40536;53.194;5.728;2023-06-01T03:31:20;13.10;;;7.40;;
54641;SDS011;40536;53.194;5.728;2023-06-01T03:33:46;11.70;;;7.43;;
54641;SDS011;40536;53.194;5.728;2023-06-01T03:36:11;11.68;;;6.85;;
54641;SDS011;40536;53.194;5.728;2023-06-01T03:38:37;9.10;;;7.70;;
54641;SDS011;40536;53.194;5.728;2023-06-01T03:41:02;12.20;;;9.00;;
54641;SDS011;40536;53.194;5.728;2023-06-01T03:43:29;10.07;;;7.05;;
54641;SDS011;40536;53.194;5.728;2023-06-01T03:45:55;9.10;;;6.90;;
54641;SDS011;40536;53.194;5.728;2023-06-01T03:48:21;8.70;;;6.80;;
54641;SDS011;40536;53.194;5.728;2023-06-01T03:50:47;10.48;;;7.32;;
54641;SDS011;40536;53.194;5.728;2023-06-01T03:53:12;14.30;;;7.40;;
54641;SDS011;40536;53.194;5.728;2023-06-01T03:55:38;12.80;;;8.98;;
54641;SDS011;40536;53.194;5.728;2023-06-01T03:58:04;11.82;;;7.82;;
54641;SDS011;40536;53.194;5.728;2023-06-01T04:00:30;10.88;;;7.03;;
54641;SDS011;40536;53.194;5.728;2023-06-01T04:02:59;11.30;;;7.78;;
54641;SDS011;40536;53.194;5.728;2023-06-01T04:05:26;12.65;;;7.68;;
54641;SDS011;40536;53.194;5.728;2023-06-01T04:07:52;10.75;;;7.18;;
54641;SDS011;40536;53.194;5.728;2023-06-01T04:10:19;14.13;;;7.22;;
54641;SDS011;40536;53.194;5.728;2023-06-01T04:12:48;38.17;;;8.55;;
54641;SDS011;40536;53.194;5.728;2023-06-01T04:15:15;10.52;;;6.60;;
54641;SDS011;40536;53.194;5.728;2023-06-01T04:17:42;10.48;;;6.88;;
54641;SDS011;40536;53.194;5.728;2023-06-01T04:20:09;10.93;;;6.50;;
54641;SDS011;40536;53.194;5.728;2023-06-01T04:22:42;9.90;;;6.57;;
54641;SDS011;40536;53.194;5.728;2023-06-01T04:25:09;11.18;;;6.57;;
54641;SDS011;40536;53.194;5.728;2023-06-01T04:27:49;14.32;;;7.18;;
54641;SDS011;40536;53.194;5.728;2023-06-01T04:30:16;8.82;;;6.45;;
54641;SDS011;40536;53.194;5.728;2023-06-01T04:32:42;12.70;;;6.65;;
54641;SDS011;40536;53.194;5.728;2023-06-01T04:35:12;10.13;;;6.93;;
54641;SDS011;40536;53.194;5.728;2023-06-01T04:37:39;9.73;;;7.25;;
54641;SDS011;40536;53.194;5.728;2023-06-01T04:40:07;10.13;;;7.65;;
54641;SDS011;40536;53.194;5.728;2023-06-01T04:42:41;10.18;;;7.03;;
54641;SDS011;40536;53.194;5.728;2023-06-01T04:45:13;11.95;;;7.38;;
54641;SDS011;40536;53.194;5.728;2023-06-01T04:47:40;8.20;;;6.85;;
54641;SDS011;40536;53.194;5.728;2023-06-01T04:50:10;13.65;;;8.60;;
54641;SDS011;40536;53.194;5.728;2023-06-01T04:52:40;10.75;;;7.40;;
54641;SDS011;40536;53.194;5.728;2023-06-01T04:55:06;11.27;;;7.63;;
54641;SDS011;40536;53.194;5.728;2023-06-01T04:57:34;10.05;;;7.05;;
54641;SDS011;40536;53.194;5.728;2023-06-01T05:00:01;15.63;;;8.45;;
54641;SDS011;40536;53.194;5.728;2023-06-01T05:02:36;9.88;;;7.47;;
54641;SDS011;40536;53.194;5.728;2023-06-01T05:05:02;11.32;;;9.30;;
54641;SDS011;40536;53.194;5.728;2023-06-01T05:07:29;10.63;;;8.10;;
54641;SDS011;40536;53.194;5.728;2023-06-01T05:09:55;13.25;;;8.50;;
54641;SDS011;40536;53.194;5.728;2023-06-01T05:12:21;14.57;;;8.60;;
54641;SDS011;40536;53.194;5.728;2023-06-01T05:14:46;12.50;;;9.30;;
54641;SDS011;40536;53.194;5.728;2023-06-01T05:17:12;11.32;;;9.10;;
54641;SDS011;40536;53.194;5.728;2023-06-01T05:19:38;12.77;;;9.63;;
54641;SDS011;40536;53.194;5.728;2023-06-01T05:22:04;16.67;;;15.00;;
54641;SDS011;40536;53.194;5.728;2023-06-01T05:24:30;14.18;;;10.30;;
54641;SDS011;40536;53.194;5.728;2023-06-01T05:26:55;14.70;;;10.02;;
54641;SDS011;40536;53.194;5.728;2023-06-01T05:29:21;13.20;;;9.45;;
54641;SDS011;40536;53.194;5.728;2023-06-01T05:31:49;11.80;;;10.30;;
54641;SDS011;40536;53.194;5.728;2023-06-01T05:34:15;12.02;;;10.10;;
54641;SDS011;40536;53.194;5.728;2023-06-01T05:36:41;14.30;;;12.07;;
54641;SDS011;40536;53.194;5.728;2023-06-01T05:39:07;13.63;;;11.55;;
54641;SDS011;40536;53.194;5.728;2023-06-01T05:41:36;13.05;;;10.65;;
54641;SDS011;40536;53.194;5.728;2023-06-01T05:44:02;14.13;;;11.82;;
54641;SDS011;40536;53.194;5.728;2023-06-01T05:46:27;15.50;;;11.68;;
54641;SDS011;40536;53.194;5.728;2023-06-01T05:48:53;14.75;;;13.02;;
54641;SDS011;40536;53.194;5.728;2023-06-01T05:51:20;15.68;;;14.05;;
54641;SDS011;40536;53.194;5.728;2023-06-01T05:53:46;16.42;;;13.52;;
54641;SDS011;40536;53.194;5.728;2023-06-01T05:56:11;15.48;;;13.05;;
54641;SDS011;40536;53.194;5.728;2023-06-01T05:58:37;14.77;;;13.40;;
54641;SDS011;40536;53.194;5.728;2023-06-01T06:01:03;14.05;;;11.15;;
54641;SDS011;40536;53.194;5.728;2023-06-01T06:03:28;20.25;;;12.07;;
54641;SDS011;40536;53.194;5.728;2023-06-01T06:05:54;14.93;;;13.48;;
54641;SDS011;40536;53.194;5.728;2023-06-01T06:08:20;13.77;;;12.25;;
54641;SDS011;40536;53.194;5.728;2023-06-01T06:10:45;14.65;;;13.35;;
54641;SDS011;40536;53.194;5.728;2023-06-01T06:13:11;15.73;;;14.20;;
54641;SDS011;40536;53.194;5.728;2023-06-01T06:15:39;16.98;;;15.30;;
54641;SDS011;40536;53.194;5.728;2023-06-01T06:18:04;17.08;;;15.07;;
54641;SDS011;40536;53.194;5.728;2023-06-01T06:20:31;15.57;;;14.13;;
54641;SDS011;40536;53.194;5.728;2023-06-01T06:22:56;16.67;;;15.05;;
54641;SDS011;40536;53.194;5.728;2023-06-01T06:25:22;17.48;;;15.80;;
54641;SDS011;40536;53.194;5.728;2023-06-01T06:27:48;16.63;;;15.02;;
54641;SDS011;40536;53.194;5.728;2023-06-01T06:30:13;16.45;;;14.88;;
54641;SDS011;40536;53.194;5.728;2023-06-01T06:32:40;16.05;;;14.65;;
54641;SDS011;40536;53.194;5.728;2023-06-01T06:35:05;16.42;;;15.02;;
54641;SDS011;40536;53.194;5.728;2023-06-01T06:37:31;17.17;;;15.65;;
54641;SDS011;40536;53.194;5.728;2023-06-01T06:39:57;15.65;;;14.13;;
54641;SDS011;40536;53.194;5.728;2023-06-01T06:42:23;15.85;;;14.52;;
54641;SDS011;40536;53.194;5.728;2023-06-01T06:44:50;17.83;;;15.27;;
54641;SDS011;40536;53.194;5.728;2023-06-01T06:47:15;18.02;;;16.48;;
54641;SDS011;40536;53.194;5.728;2023-06-01T06:49:44;18.70;;;17.05;;
54641;SDS011;40536;53.194;5.728;2023-06-01T06:52:10;17.70;;;16.15;;
54641;SDS011;40536;53.194;5.728;2023-06-01T06:54:38;16.35;;;15.05;;
54641;SDS011;40536;53.194;5.728;2023-06-01T06:57:05;17.23;;;15.85;;
54641;SDS011;40536;53.194;5.728;2023-06-01T06:59:32;17.85;;;16.50;;
54641;SDS011;40536;53.194;5.728;2023-06-01T07:01:58;18.65;;;17.15;;
54641;SDS011;40536;53.194;5.728;2023-06-01T07:04:24;18.33;;;16.67;;
54641;SDS011;40536;53.194;5.728;2023-06-01T07:06:49;17.90;;;16.55;;
54641;SDS011;40536;53.194;5.728;2023-06-01T07:09:16;17.30;;;16.00;;
54641;SDS011;40536;53.194;5.728;2023-06-01T07:11:42;18.60;;;17.08;;
54641;SDS011;40536;53.194;5.728;2023-06-01T07:14:08;18.35;;;16.95;;
54641;SDS011;40536;53.194;5.728;2023-06-01T07:16:33;17.77;;;16.27;;
54641;SDS011;40536;53.194;5.728;2023-06-01T07:18:59;20.08;;;18.60;;
54641;SDS011;40536;53.194;5.728;2023-06-01T07:21:25;19.33;;;17.55;;
54641;SDS011;40536;53.194;5.728;2023-06-01T07:23:51;17.08;;;15.77;;
54641;SDS011;40536;53.194;5.728;2023-06-01T07:26:16;18.38;;;16.65;;
54641;SDS011;40536;53.194;5.728;2023-06-01T07:28:42;18.42;;;17.13;;
54641;SDS011;40536;53.194;5.728;2023-06-01T07:31:08;18.70;;;17.30;;
54641;SDS011;40536;53.194;5.728;2023-06-01T07:33:34;19.35;;;18.02;;
54641;SDS011;40536;53.194;5.728;2023-06-01T07:36:01;22.75;;;20.98;;
54641;SDS011;40536;53.194;5.728;2023-06-01T07:38:28;23.10;;;21.63;;
54641;SDS011;40536;53.194;5.728;2023-06-01T07:40:54;23.17;;;21.27;;
54641;SDS011;40536;53.194;5.728;2023-06-01T07:43:22;24.27;;;22.58;;
54641;SDS011;40536;53.194;5.728;2023-06-01T07:45:47;26.33;;;23.98;;
54641;SDS011;40536;53.194;5.728;2023-06-01T07:48:13;23.38;;;21.63;;
54641;SDS011;40536;53.194;5.728;2023-06-01T07:50:38;24.15;;;22.35;;
54641;SDS011;40536;53.194;5.728;2023-06-01T07:53:04;21.85;;;20.38;;
54641;SDS011;40536;53.194;5.728;2023-06-01T07:55:30;29.02;;;27.02;;
54641;SDS011;40536;53.194;5.728;2023-06-01T07:57:55;20.92;;;19.15;;
54641;SDS011;40536;53.194;5.728;2023-06-01T08:00:21;21.35;;;19.95;;
54641;SDS011;40536;53.194;5.728;2023-06-01T08:02:47;23.48;;;21.55;;
54641;SDS011;40536;53.194;5.728;2023-06-01T08:05:13;26.10;;;24.30;;
54641;SDS011;40536;53.194;5.728;2023-06-01T08:07:42;26.13;;;24.25;;
54641;SDS011;40536;53.194;5.728;2023-06-01T08:10:09;21.48;;;19.80;;
54641;SDS011;40536;53.194;5.728;2023-06-01T08:12:35;25.98;;;23.60;;
54641;SDS011;40536;53.194;5.728;2023-06-01T08:15:01;25.08;;;22.80;;
54641;SDS011;40536;53.194;5.728;2023-06-01T08:17:28;21.15;;;19.05;;
54641;SDS011;40536;53.194;5.728;2023-06-01T08:19:55;22.23;;;20.33;;
54641;SDS011;40536;53.194;5.728;2023-06-01T08:22:22;19.38;;;17.73;;
54641;SDS011;40536;53.194;5.728;2023-06-01T08:24:49;19.95;;;18.50;;
54641;SDS011;40536;53.194;5.728;2023-06-01T08:27:17;18.88;;;17.50;;
54641;SDS011;40536;53.194;5.728;2023-06-01T08:29:45;22.33;;;20.10;;
54641;SDS011;40536;53.194;5.728;2023-06-01T08:32:12;21.65;;;19.63;;
54641;SDS011;40536;53.194;5.728;2023-06-01T08:34:38;20.25;;;18.45;;
54641;SDS011;40536;53.194;5.728;2023-06-01T08:37:04;20.95;;;19.05;;
54641;SDS011;40536;53.194;5.728;2023-06-01T08:39:30;18.15;;;16.58;;
54641;SDS011;40536;53.194;5.728;2023-06-01T08:44:45;20.30;;;18.80;;
54641;SDS011;40536;53.194;5.728;2023-06-01T08:47:11;22.55;;;18.42;;
54641;SDS011;40536;53.194;5.728;2023-06-01T08:49:39;20.08;;;17.98;;
54641;SDS011;40536;53.194;5.728;2023-06-01T08:52:09;19.30;;;17.48;;
54641;SDS011;40536;53.194;5.728;2023-06-01T08:54:38;22.35;;;20.55;;
54641;SDS011;40536;53.194;5.728;2023-06-01T08:57:04;19.98;;;18.38;;
54641;SDS011;40536;53.194;5.728;2023-06-01T08:59:34;20.55;;;18.35;;
54641;SDS011;40536;53.194;5.728;2023-06-01T09:02:01;20.52;;;18.70;;
54641;SDS011;40536;53.194;5.728;2023-06-01T09:04:27;17.38;;;15.68;;
54641;SDS011;40536;53.194;5.728;2023-06-01T09:06:56;18.77;;;17.05;;
54641;SDS011;40536;53.194;5.728;2023-06-01T09:09:22;19.17;;;16.58;;
54641;SDS011;40536;53.194;5.728;2023-06-01T09:11:47;17.95;;;16.35;;
54641;SDS011;40536;53.194;5.728;2023-06-01T09:14:23;17.17;;;15.45;;
54641;SDS011;40536;53.194;5.728;2023-06-01T09:16:49;26.30;;;15.68;;
54641;SDS011;40536;53.194;5.728;2023-06-01T09:19:16;16.35;;;14.88;;
54641;SDS011;40536;53.194;5.728;2023-06-01T09:21:58;18.90;;;15.75;;
54641;SDS011;40536;53.194;5.728;2023-06-01T09:24:24;15.98;;;14.57;;
54641;SDS011;40536;53.194;5.728;2023-06-01T09:26:51;17.10;;;15.35;;
54641;SDS011;40536;53.194;5.728;2023-06-01T09:29:24;17.50;;;15.52;;
54641;SDS011;40536;53.194;5.728;2023-06-01T09:31:51;17.85;;;16.05;;
54641;SDS011;40536;53.194;5.728;2023-06-01T09:34:17;15.75;;;14.40;;
54641;SDS011;40536;53.194;5.728;2023-06-01T09:36:44;16.27;;;14.40;;
54641;SDS011;40536;53.194;5.728;2023-06-01T09:39:15;17.00;;;15.40;;
54641;SDS011;40536;53.194;5.728;2023-06-01T09:41:55;16.10;;;14.57;;
54641;SDS011;40536;53.194;5.728;2023-06-01T09:44:30;15.20;;;13.93;;
54641;SDS011;40536;53.194;5.728;2023-06-01T09:47:01;16.15;;;14.75;;
54641;SDS011;40536;53.194;5.728;2023-06-01T09:49:29;15.77;;;14.32;;
54641;SDS011;40536;53.194;5.728;2023-06-01T09:54:40;17.05;;;15.57;;
54641;SDS011;40536;53.194;5.728;2023-06-01T09:57:08;18.08;;;16.58;;
54641;SDS011;40536;53.194;5.728;2023-06-01T09:59:41;18.70;;;17.30;;
54641;SDS011;40536;53.194;5.728;2023-06-01T10:02:12;17.98;;;16.67;;
54641;SDS011;40536;53.194;5.728;2023-06-01T10:04:39;18.02;;;16.52;;
54641;SDS011;40536;53.194;5.728;2023-06-01T10:07:06;18.65;;;17.35;;
54641;SDS011;40536;53.194;5.728;2023-06-01T10:09:36;20.17;;;18.38;;
54641;SDS011;40536;53.194;5.728;2023-06-01T10:12:04;17.85;;;16.70;;
54641;SDS011;40536;53.194;5.728;2023-06-01T10:14:30;17.40;;;16.08;;
54641;SDS011;40536;53.194;5.728;2023-06-01T10:16:56;16.42;;;14.77;;
54641;SDS011;40536;53.194;5.728;2023-06-01T10:19:23;20.27;;;18.88;;
54641;SDS011;40536;53.194;5.728;2023-06-01T10:21:48;18.90;;;17.02;;
54641;SDS011;40536;53.194;5.728;2023-06-01T10:24:17;19.48;;;17.67;;
54641;SDS011;40536;53.194;5.728;2023-06-01T10:29:16;20.80;;;19.20;;
54641;SDS011;40536;53.194;5.728;2023-06-01T10:31:43;19.15;;;17.50;;
54641;SDS011;40536;53.194;5.728;2023-06-01T10:34:10;18.45;;;17.05;;
54641;SDS011;40536;53.194;5.728;2023-06-01T10:39:28;19.08;;;17.58;;
54641;SDS011;40536;53.194;5.728;2023-06-01T10:41:55;18.75;;;17.25;;
54641;SDS011;40536;53.194;5.728;2023-06-01T10:44:44;19.35;;;17.85;;
54641;SDS011;40536;53.194;5.728;2023-06-01T10:52:25;17.40;;;15.82;;
54641;SDS011;40536;53.194;5.728;2023-06-01T10:55:39;18.80;;;17.13;;
54641;SDS011;40536;53.194;5.728;2023-06-01T10:57:40;18.88;;;17.17;;
54641;SDS011;40536;53.194;5.728;2023-06-01T11:02:56;18.63;;;17.25;;
54641;SDS011;40536;53.194;5.728;2023-06-01T11:08:51;17.30;;;15.90;;
54641;SDS011;40536;53.194;5.728;2023-06-01T11:10:55;16.92;;;15.57;;
54641;SDS011;40536;53.194;5.728;2023-06-01T11:13:22;17.90;;;16.48;;
54641;SDS011;40536;53.194;5.728;2023-06-01T11:21:26;22.55;;;14.45;;
54641;SDS011;40536;53.194;5.728;2023-06-01T11:23:59;17.75;;;16.13;;
54641;SDS011;40536;53.194;5.728;2023-06-01T11:26:30;14.75;;;13.52;;
54641;SDS011;40536;53.194;5.728;2023-06-01T11:34:30;14.02;;;12.75;;
54641;SDS011;40536;53.194;5.728;2023-06-01T11:37:14;15.55;;;14.25;;
54641;SDS011;40536;53.194;5.728;2023-06-01T11:39:41;11.75;;;10.63;;
54641;SDS011;40536;53.194;5.728;2023-06-01T11:42:08;12.68;;;8.82;;
54641;SDS011;40536;53.194;5.728;2023-06-01T11:44:39;11.02;;;9.93;;
54641;SDS011;40536;53.194;5.728;2023-06-01T11:47:06;9.25;;;8.10;;
54641;SDS011;40536;53.194;5.728;2023-06-01T11:49:49;12.18;;;8.90;;
54641;SDS011;40536;53.194;5.728;2023-06-01T11:52:18;13.18;;;11.15;;
54641;SDS011;40536;53.194;5.728;2023-06-01T11:54:45;10.85;;;9.13;;
54641;SDS011;40536;53.194;5.728;2023-06-01T11:57:11;10.82;;;9.70;;
54641;SDS011;40536;53.194;5.728;2023-06-01T11:59:41;11.48;;;10.13;;
54641;SDS011;40536;53.194;5.728;2023-06-01T12:02:17;11.98;;;10.63;;
54641;SDS011;40536;53.194;5.728;2023-06-01T12:07:27;10.30;;;9.30;;
54641;SDS011;40536;53.194;5.728;2023-06-01T12:09:53;12.40;;;9.55;;
54641;SDS011;40536;53.194;5.728;2023-06-01T12:12:23;10.25;;;9.35;;
54641;SDS011;40536;53.194;5.728;2023-06-01T12:14:50;10.48;;;9.45;;
54641;SDS011;40536;53.194;5.728;2023-06-01T12:17:16;10.57;;;9.68;;
54641;SDS011;40536;53.194;5.728;2023-06-01T12:19:46;12.32;;;11.30;;
54641;SDS011;40536;53.194;5.728;2023-06-01T12:22:12;10.13;;;8.55;;
54641;SDS011;40536;53.194;5.728;2023-06-01T12:24:38;11.23;;;9.68;;
54641;SDS011;40536;53.194;5.728;2023-06-01T12:27:12;13.07;;;10.15;;
54641;SDS011;40536;53.194;5.728;2023-06-01T12:29:46;11.30;;;10.25;;
54641;SDS011;40536;53.194;5.728;2023-06-01T12:32:15;11.48;;;10.10;;
54641;SDS011;40536;53.194;5.728;2023-06-01T12:34:43;12.02;;;10.93;;
54641;SDS011;40536;53.194;5.728;2023-06-01T12:37:16;20.08;;;13.13;;
54641;SDS011;40536;53.194;5.728;2023-06-01T12:39:52;13.43;;;12.13;;
54641;SDS011;40536;53.194;5.728;2023-06-01T12:42:19;14.13;;;12.80;;
54641;SDS011;40536;53.194;5.728;2023-06-01T12:45:01;14.38;;;12.88;;
54641;SDS011;40536;53.194;5.728;2023-06-01T12:47:34;18.95;;;11.07;;
54641;SDS011;40536;53.194;5.728;2023-06-01T12:52:26;12.45;;;10.32;;
54641;SDS011;40536;53.194;5.728;2023-06-01T12:54:52;11.20;;;10.20;;
54641;SDS011;40536;53.194;5.728;2023-06-01T12:57:18;11.85;;;10.95;;
54641;SDS011;40536;53.194;5.728;2023-06-01T12:59:44;12.10;;;11.20;;
54641;SDS011;40536;53.194;5.728;2023-06-01T13:02:09;11.98;;;10.85;;
54641;SDS011;40536;53.194;5.728;2023-06-01T13:04:35;15.20;;;12.35;;
54641;SDS011;40536;53.194;5.728;2023-06-01T13:07:01;12.25;;;10.00;;
54641;SDS011;40536;53.194;5.728;2023-06-01T13:09:27;12.23;;;10.25;;
54641;SDS011;40536;53.194;5.728;2023-06-01T13:11:53;14.32;;;10.55;;
54641;SDS011;40536;53.194;5.728;2023-06-01T13:14:18;12.55;;;8.52;;
54641;SDS011;40536;53.194;5.728;2023-06-01T13:16:44;9.75;;;7.38;;
54641;SDS011;40536;53.194;5.728;2023-06-01T13:19:10;10.60;;;8.10;;
54641;SDS011;40536;53.194;5.728;2023-06-01T13:21:36;11.93;;;9.38;;
54641;SDS011;40536;53.194;5.728;2023-06-01T13:24:01;9.00;;;8.10;;
54641;SDS011;40536;53.194;5.728;2023-06-01T13:26:28;17.05;;;9.65;;
54641;SDS011;40536;53.194;5.728;2023-06-01T13:28:54;10.38;;;9.38;;
54641;SDS011;40536;53.194;5.728;2023-06-01T13:31:20;12.02;;;8.93;;
54641;SDS011;40536;53.194;5.728;2023-06-01T13:33:46;9.23;;;8.32;;
54641;SDS011;40536;53.194;5.728;2023-06-01T13:36:11;9.80;;;8.45;;
54641;SDS011;40536;53.194;5.728;2023-06-01T13:38:37;9.75;;;8.63;;
54641;SDS011;40536;53.194;5.728;2023-06-01T13:41:03;13.88;;;9.07;;
54641;SDS011;40536;53.194;5.728;2023-06-01T13:43:28;10.52;;;8.45;;
54641;SDS011;40536;53.194;5.728;2023-06-01T13:45:54;14.45;;;9.48;;
54641;SDS011;40536;53.194;5.728;2023-06-01T13:48:20;10.07;;;8.95;;
54641;SDS011;40536;53.194;5.728;2023-06-01T13:50:45;10.48;;;9.57;;
54641;SDS011;40536;53.194;5.728;2023-06-01T13:53:11;12.15;;;11.02;;
54641;SDS011;40536;53.194;5.728;2023-06-01T13:55:37;12.20;;;9.73;;
54641;SDS011;40536;53.194;5.728;2023-06-01T13:58:04;10.65;;;9.73;;
54641;SDS011;40536;53.194;5.728;2023-06-01T14:00:29;11.00;;;9.65;;
54641;SDS011;40536;53.194;5.728;2023-06-01T14:02:55;11.18;;;10.00;;
54641;SDS011;40536;53.194;5.728;2023-06-01T14:05:21;14.60;;;13.30;;
54641;SDS011;40536;53.194;5.728;2023-06-01T14:07:46;10.23;;;9.23;;
54641;SDS011;40536;53.194;5.728;2023-06-01T14:10:12;10.77;;;8.55;;
54641;SDS011;40536;53.194;5.728;2023-06-01T14:12:39;11.98;;;8.93;;
54641;SDS011;40536;53.194;5.728;2023-06-01T14:15:05;11.05;;;9.55;;
54641;SDS011;40536;53.194;5.728;2023-06-01T14:17:31;14.48;;;9.20;;
54641;SDS011;40536;53.194;5.728;2023-06-01T14:19:57;9.68;;;8.70;;
54641;SDS011;40536;53.194;5.728;2023-06-01T14:22:23;9.48;;;8.52;;
54641;SDS011;40536;53.194;5.728;2023-06-01T14:24:48;10.60;;;9.80;;
54641;SDS011;40536;53.194;5.728;2023-06-01T14:27:14;9.73;;;8.80;;
54641;SDS011;40536;53.194;5.728;2023-06-01T14:29:40;8.57;;;7.88;;
54641;SDS011;40536;53.194;5.728;2023-06-01T14:32:06;10.57;;;9.52;;
54641;SDS011;40536;53.194;5.728;2023-06-01T14:34:32;11.55;;;10.18;;
54641;SDS011;40536;53.194;5.728;2023-06-01T14:36:57;12.40;;;10.82;;
54641;SDS011;40536;53.194;5.728;2023-06-01T14:39:23;11.45;;;10.18;;
54641;SDS011;40536;53.194;5.728;2023-06-01T14:41:50;14.07;;;12.93;;
54641;SDS011;40536;53.194;5.728;2023-06-01T14:44:15;12.98;;;11.63;;
54641;SDS011;40536;53.194;5.728;2023-06-01T14:46:41;13.85;;;12.75;;
54641;SDS011;40536;53.194;5.728;2023-06-01T14:49:07;14.77;;;13.57;;
54641;SDS011;40536;53.194;5.728;2023-06-01T14:51:33;15.68;;;14.63;;
54641;SDS011;40536;53.194;5.728;2023-06-01T14:53:58;14.20;;;13.10;;
54641;SDS011;40536;53.194;5.728;2023-06-01T14:56:24;15.15;;;14.05;;
54641;SDS011;40536;53.194;5.728;2023-06-01T14:58:51;9.00;;;8.27;;
54641;SDS011;40536;53.194;5.728;2023-06-01T15:01:17;10.93;;;10.13;;
54641;SDS011;40536;53.194;5.728;2023-06-01T15:03:42;9.63;;;8.88;;
54641;SDS011;40536;53.194;5.728;2023-06-01T15:06:08;10.27;;;9.38;;
54641;SDS011;40536;53.194;5.728;2023-06-01T15:08:34;9.88;;;8.05;;
54641;SDS011;40536;53.194;5.728;2023-06-01T15:10:59;10.35;;;7.60;;
54641;SDS011;40536;53.194;5.728;2023-06-01T15:13:25;9.13;;;7.93;;
54641;SDS011;40536;53.194;5.728;2023-06-01T15:15:51;10.70;;;9.80;;
54641;SDS011;40536;53.194;5.728;2023-06-01T15:18:16;11.18;;;10.07;;
54641;SDS011;40536;53.194;5.728;2023-06-01T15:20:42;13.15;;;10.70;;
54641;SDS011;40536;53.194;5.728;2023-06-01T15:23:08;12.02;;;10.63;;
54641;SDS011;40536;53.194;5.728;2023-06-01T15:25:34;16.83;;;14.48;;
54641;SDS011;40536;53.194;5.728;2023-06-01T15:28:00;13.55;;;12.40;;
54641;SDS011;40536;53.194;5.728;2023-06-01T15:30:25;15.77;;;14.32;;
54641;SDS011;40536;53.194;5.728;2023-06-01T15:32:56;12.27;;;11.20;;
54641;SDS011;40536;53.194;5.728;2023-06-01T15:35:21;12.15;;;10.65;;
54641;SDS011;40536;53.194;5.728;2023-06-01T15:37:47;11.63;;;10.20;;
54641;SDS011;40536;53.194;5.728;2023-06-01T15:40:13;10.57;;;9.65;;
54641;SDS011;40536;53.194;5.728;2023-06-01T15:42:40;13.23;;;10.57;;
54641;SDS011;40536;53.194;5.728;2023-06-01T15:45:06;13.85;;;10.05;;
54641;SDS011;40536;53.194;5.728;2023-06-01T15:47:32;9.60;;;8.57;;
54641;SDS011;40536;53.194;5.728;2023-06-01T15:49:58;8.57;;;7.65;;
54641;SDS011;40536;53.194;5.728;2023-06-01T15:52:24;9.93;;;7.53;;
54641;SDS011;40536;53.194;5.728;2023-06-01T15:54:50;7.80;;;7.05;;
54641;SDS011;40536;53.194;5.728;2023-06-01T15:57:15;8.93;;;7.93;;
54641;SDS011;40536;53.194;5.728;2023-06-01T15:59:41;9.05;;;8.20;;